createdAt,value
2023-05-01T00:02:37.774Z,350
2023-05-01T00:17:39.586Z,320
2023-05-01T00:32:41.349Z,320
2023-05-01T00:47:43.194Z,260
2023-05-01T01:02:45.028Z,210
2023-05-01T01:17:47.271Z,170
2023-05-01T01:32:49.084Z,30
2023-05-01T01:47:51.057Z,30
2023-05-01T02:02:53.192Z,20
2023-05-01T02:17:55.191Z,10
2023-05-01T02:32:57.085Z,10
2023-05-01T02:47:58.956Z,0
2023-05-01T03:03:00.928Z,0
2023-05-01T03:18:02.798Z,0
2023-05-01T03:33:04.672Z,0
2023-05-01T03:48:06.548Z,0
2023-05-01T04:03:08.529Z,0
2023-05-01T04:18:10.446Z,0
2023-05-01T04:33:12.177Z,0
2023-05-01T04:48:13.986Z,0
2023-05-01T05:03:15.836Z,0
2023-05-01T05:18:17.709Z,0
2023-05-01T05:33:19.563Z,0
2023-05-01T05:48:21.301Z,0
2023-05-01T06:03:23.248Z,0
2023-05-01T06:18:25.043Z,0
2023-05-01T06:33:26.735Z,0
2023-05-01T06:48:28.485Z,0
2023-05-01T07:03:30.314Z,0
2023-05-01T07:18:32.174Z,0
2023-05-01T07:33:33.868Z,0
2023-05-01T07:48:36.943Z,0
2023-05-01T08:03:40.585Z,0
2023-05-01T08:18:42.405Z,0
2023-05-01T08:33:44.173Z,0
2023-05-01T08:48:45.927Z,0
2023-05-01T09:03:47.753Z,0
2023-05-01T09:18:49.475Z,0
2023-05-01T09:33:51.201Z,0
2023-05-01T09:48:52.915Z,0
2023-05-01T10:03:54.750Z,0
2023-05-01T10:18:56.593Z,0
2023-05-01T10:33:58.341Z,0
2023-05-01T10:49:00.140Z,0
2023-05-01T11:04:01.949Z,0
2023-05-01T11:19:03.641Z,0
2023-05-01T11:34:05.353Z,0
2023-05-01T11:49:07.089Z,0
2023-05-01T12:04:08.976Z,0
2023-05-01T12:19:10.870Z,0
2023-05-01T12:34:12.667Z,0
2023-05-01T12:49:14.389Z,0
2023-05-01T13:04:16.224Z,0
2023-05-01T13:19:18.014Z,10
2023-05-01T13:34:19.814Z,10
2023-05-01T13:49:21.531Z,10
2023-05-01T14:04:23.340Z,10
2023-05-01T14:19:25.131Z,20
2023-05-01T14:34:28.638Z,20
2023-05-01T14:49:30.988Z,20
2023-05-01T15:04:32.829Z,20
2023-05-01T15:19:34.817Z,20
2023-05-01T15:34:36.579Z,30
2023-05-01T15:49:38.361Z,40
2023-05-01T16:04:40.121Z,30
2023-05-01T16:19:41.858Z,30
2023-05-01T16:34:43.617Z,30
2023-05-01T16:49:45.326Z,40
2023-05-01T17:04:47.209Z,20
2023-05-01T17:19:49.129Z,40
2023-05-01T17:34:50.854Z,50
2023-05-01T17:49:52.557Z,40
2023-05-01T18:04:54.272Z,30
2023-05-01T18:19:56.022Z,30
2023-05-01T18:34:57.743Z,30
2023-05-01T18:49:59.741Z,40
2023-05-01T19:05:01.737Z,80
2023-05-01T19:20:03.500Z,70
2023-05-01T19:35:05.232Z,90
2023-05-01T19:50:06.975Z,110
2023-05-01T20:05:08.788Z,110
2023-05-01T20:20:10.564Z,150
2023-05-01T20:35:12.282Z,170
2023-05-01T20:50:13.960Z,220
2023-05-01T21:05:15.755Z,210
2023-05-01T21:20:17.530Z,50
2023-05-01T21:35:20.615Z,50
2023-05-01T21:50:22.485Z,20
2023-05-01T22:05:24.158Z,270
2023-05-01T22:20:25.862Z,340
2023-05-01T22:35:27.650Z,320
2023-05-01T22:50:29.440Z,170
2023-05-01T23:05:31.173Z,350
2023-05-01T23:20:32.904Z,360
2023-05-01T23:35:34.686Z,210
2023-05-01T23:50:36.479Z,360
